sensor_id;sensor_type;location;lat;lon;timestamp;temperature;humidity
32895;DHT22;19251;49.484;8.260;2022-11-18T00:04:39;12.90;33.00
32895;DHT22;19251;49.484;8.260;2022-11-18T00:09:41;12.90;33.00
32895;DHT22;19251;49.484;8.260;2022-11-18T00:19:45;12.80;32.90
32895;DHT22;19251;49.484;8.260;2022-11-18T00:24:47;12.80;32.80
32895;DHT22;19251;49.484;8.260;2022-11-18T00:29:49;12.80;32.70
32895;DHT22;19251;49.484;8.260;2022-11-18T00:34:51;12.70;32.70
32895;DHT22;19251;49.484;8.260;2022-11-18T00:39:53;12.70;32.50
32895;DHT22;19251;49.484;8.260;2022-11-18T00:44:56;12.60;32.20
32895;DHT22;19251;49.484;8.260;2022-11-18T00:49:57;12.50;32.20
32895;DHT22;19251;49.484;8.260;2022-11-18T00:55:00;12.40;32.30
32895;DHT22;19251;49.484;8.260;2022-11-18T01:00:03;12.30;32.20
32895;DHT22;19251;49.484;8.260;2022-11-18T01:05:05;12.30;32.40
32895;DHT22;19251;49.484;8.260;2022-11-18T01:10:07;12.30;32.50
32895;DHT22;19251;49.484;8.260;2022-11-18T01:15:10;12.30;32.80
32895;DHT22;19251;49.484;8.260;2022-11-18T01:25:15;12.30;32.90
32895;DHT22;19251;49.484;8.260;2022-11-18T01:30:17;12.30;32.90
32895;DHT22;19251;49.484;8.260;2022-11-18T01:35:19;12.30;33.00
32895;DHT22;19251;49.484;8.260;2022-11-18T01:40:21;12.30;32.90
32895;DHT22;19251;49.484;8.260;2022-11-18T01:50:38;12.10;32.70
32895;DHT22;19251;49.484;8.260;2022-11-18T01:55:46;12.40;33.00
32895;DHT22;19251;49.484;8.260;2022-11-18T02:00:49;12.40;33.00
32895;DHT22;19251;49.484;8.260;2022-11-18T02:05:53;12.40;32.90
32895;DHT22;19251;49.484;8.260;2022-11-18T02:10:55;12.40;33.00
32895;DHT22;19251;49.484;8.260;2022-11-18T02:16:19;12.40;32.80
32895;DHT22;19251;49.484;8.260;2022-11-18T02:27:01;12.40;33.10
32895;DHT22;19251;49.484;8.260;2022-11-18T02:32:31;12.40;33.10
32895;DHT22;19251;49.484;8.260;2022-11-18T02:37:47;12.40;33.00
32895;DHT22;19251;49.484;8.260;2022-11-18T02:42:55;12.40;33.00
32895;DHT22;19251;49.484;8.260;2022-11-18T02:48:02;12.40;33.00
32895;DHT22;19251;49.484;8.260;2022-11-18T02:53:07;12.40;33.10
32895;DHT22;19251;49.484;8.260;2022-11-18T02:58:12;12.40;33.10
32895;DHT22;19251;49.484;8.260;2022-11-18T03:03:33;12.40;33.20
32895;DHT22;19251;49.484;8.260;2022-11-18T03:08:44;12.20;33.00
32895;DHT22;19251;49.484;8.260;2022-11-18T03:19:21;12.40;33.30
32895;DHT22;19251;49.484;8.260;2022-11-18T03:24:31;12.40;33.50
32895;DHT22;19251;49.484;8.260;2022-11-18T03:29:38;12.40;33.50
32895;DHT22;19251;49.484;8.260;2022-11-18T03:34:56;12.50;33.50
32895;DHT22;19251;49.484;8.260;2022-11-18T03:40:10;12.50;33.50
32895;DHT22;19251;49.484;8.260;2022-11-18T03:45:20;12.60;33.60
32895;DHT22;19251;49.484;8.260;2022-11-18T03:50:33;12.50;33.30
32895;DHT22;19251;49.484;8.260;2022-11-18T03:55:40;12.60;33.60
32895;DHT22;19251;49.484;8.260;2022-11-18T04:00:45;12.60;33.50
32895;DHT22;19251;49.484;8.260;2022-11-18T04:05:51;12.60;33.40
32895;DHT22;19251;49.484;8.260;2022-11-18T04:11:12;12.60;33.60
32895;DHT22;19251;49.484;8.260;2022-11-18T04:16:43;12.60;33.80
32895;DHT22;19251;49.484;8.260;2022-11-18T04:21:47;12.60;33.80
32895;DHT22;19251;49.484;8.260;2022-11-18T04:26:49;12.60;33.90
32895;DHT22;19251;49.484;8.260;2022-11-18T04:31:51;12.70;33.90
32895;DHT22;19251;49.484;8.260;2022-11-18T04:36:54;12.60;33.80
32895;DHT22;19251;49.484;8.260;2022-11-18T04:41:56;12.60;33.70
32895;DHT22;19251;49.484;8.260;2022-11-18T04:47:01;12.60;33.30
32895;DHT22;19251;49.484;8.260;2022-11-18T04:52:05;12.60;32.80
32895;DHT22;19251;49.484;8.260;2022-11-18T04:57:07;12.60;32.80
32895;DHT22;19251;49.484;8.260;2022-11-18T05:02:09;12.50;32.30
32895;DHT22;19251;49.484;8.260;2022-11-18T05:07:13;12.50;31.90
32895;DHT22;19251;49.484;8.260;2022-11-18T05:17:37;12.30;31.70
32895;DHT22;19251;49.484;8.260;2022-11-18T05:22:40;12.20;31.40
32895;DHT22;19251;49.484;8.260;2022-11-18T05:27:43;12.20;31.70
32895;DHT22;19251;49.484;8.260;2022-11-18T05:32:46;12.20;31.10
32895;DHT22;19251;49.484;8.260;2022-11-18T05:37:48;12.00;31.10
32895;DHT22;19251;49.484;8.260;2022-11-18T05:42:51;12.00;31.60
32895;DHT22;19251;49.484;8.260;2022-11-18T05:48:11;12.10;31.70
32895;DHT22;19251;49.484;8.260;2022-11-18T05:53:15;12.10;31.70
32895;DHT22;19251;49.484;8.260;2022-11-18T05:58:18;12.10;31.40
32895;DHT22;19251;49.484;8.260;2022-11-18T06:03:26;12.10;31.50
32895;DHT22;19251;49.484;8.260;2022-11-18T06:08:39;12.10;30.90
32895;DHT22;19251;49.484;8.260;2022-11-18T06:13:48;12.10;31.20
32895;DHT22;19251;49.484;8.260;2022-11-18T06:18:51;12.00;30.90
32895;DHT22;19251;49.484;8.260;2022-11-18T06:23:53;11.90;31.00
32895;DHT22;19251;49.484;8.260;2022-11-18T06:28:56;11.90;31.20
32895;DHT22;19251;49.484;8.260;2022-11-18T06:33:58;11.90;31.20
32895;DHT22;19251;49.484;8.260;2022-11-18T06:39:04;11.90;31.20
32895;DHT22;19251;49.484;8.260;2022-11-18T06:44:06;11.90;31.20
32895;DHT22;19251;49.484;8.260;2022-11-18T06:49:09;11.90;31.20
32895;DHT22;19251;49.484;8.260;2022-11-18T06:54:11;11.90;31.20
32895;DHT22;19251;49.484;8.260;2022-11-18T06:59:13;11.90;31.20
32895;DHT22;19251;49.484;8.260;2022-11-18T07:04:15;11.90;31.30
32895;DHT22;19251;49.484;8.260;2022-11-18T07:09:18;11.90;31.50
32895;DHT22;19251;49.484;8.260;2022-11-18T07:14:20;11.90;32.10
32895;DHT22;19251;49.484;8.260;2022-11-18T07:19:22;11.90;32.10
32895;DHT22;19251;49.484;8.260;2022-11-18T07:24:24;11.90;31.40
32895;DHT22;19251;49.484;8.260;2022-11-18T07:29:26;11.90;31.30
32895;DHT22;19251;49.484;8.260;2022-11-18T07:34:29;11.90;31.50
32895;DHT22;19251;49.484;8.260;2022-11-18T07:39:31;11.90;31.40
32895;DHT22;19251;49.484;8.260;2022-11-18T07:44:33;12.00;32.20
32895;DHT22;19251;49.484;8.260;2022-11-18T07:49:35;12.00;31.50
32895;DHT22;19251;49.484;8.260;2022-11-18T07:54:37;12.10;32.40
32895;DHT22;19251;49.484;8.260;2022-11-18T07:59:39;12.10;31.40
32895;DHT22;19251;49.484;8.260;2022-11-18T08:04:41;12.10;31.40
32895;DHT22;19251;49.484;8.260;2022-11-18T08:09:43;12.20;32.20
32895;DHT22;19251;49.484;8.260;2022-11-18T08:14:45;12.20;31.50
32895;DHT22;19251;49.484;8.260;2022-11-18T08:19:47;12.30;31.70
32895;DHT22;19251;49.484;8.260;2022-11-18T08:24:49;12.40;31.80
32895;DHT22;19251;49.484;8.260;2022-11-18T08:29:51;12.50;31.70
32895;DHT22;19251;49.484;8.260;2022-11-18T08:34:53;12.50;32.50
32895;DHT22;19251;49.484;8.260;2022-11-18T08:44:58;12.60;31.40
32895;DHT22;19251;49.484;8.260;2022-11-18T08:50:01;12.60;32.00
32895;DHT22;19251;49.484;8.260;2022-11-18T08:55:04;12.70;32.30
32895;DHT22;19251;49.484;8.260;2022-11-18T09:00:07;12.80;31.30
32895;DHT22;19251;49.484;8.260;2022-11-18T09:05:09;12.80;32.00
32895;DHT22;19251;49.484;8.260;2022-11-18T09:10:11;12.90;32.20
32895;DHT22;19251;49.484;8.260;2022-11-18T09:15:13;13.00;32.20
32895;DHT22;19251;49.484;8.260;2022-11-18T09:20:16;13.30;32.40
32895;DHT22;19251;49.484;8.260;2022-11-18T09:25:18;13.30;31.50
32895;DHT22;19251;49.484;8.260;2022-11-18T09:30:21;13.50;30.70
32895;DHT22;19251;49.484;8.260;2022-11-18T09:35:23;13.40;31.20
32895;DHT22;19251;49.484;8.260;2022-11-18T09:40:26;13.60;30.80
32895;DHT22;19251;49.484;8.260;2022-11-18T09:45:33;13.70;31.10
32895;DHT22;19251;49.484;8.260;2022-11-18T09:50:39;13.70;31.50
32895;DHT22;19251;49.484;8.260;2022-11-18T09:55:56;13.80;31.30
32895;DHT22;19251;49.484;8.260;2022-11-18T10:01:00;13.90;30.30
32895;DHT22;19251;49.484;8.260;2022-11-18T10:06:12;14.00;30.90
32895;DHT22;19251;49.484;8.260;2022-11-18T10:11:27;14.10;30.10
32895;DHT22;19251;49.484;8.260;2022-11-18T10:22:20;14.10;29.30
32895;DHT22;19251;49.484;8.260;2022-11-18T10:27:34;14.10;29.90
32895;DHT22;19251;49.484;8.260;2022-11-18T10:38:33;14.20;30.00
32895;DHT22;19251;49.484;8.260;2022-11-18T10:54:15;14.30;28.70
32895;DHT22;19251;49.484;8.260;2022-11-18T11:04:30;14.40;28.50
32895;DHT22;19251;49.484;8.260;2022-11-18T11:09:32;14.40;28.40
32895;DHT22;19251;49.484;8.260;2022-11-18T11:14:56;14.60;28.50
32895;DHT22;19251;49.484;8.260;2022-11-18T11:20:19;14.70;28.10
32895;DHT22;19251;49.484;8.260;2022-11-18T11:30:35;15.00;27.70
32895;DHT22;19251;49.484;8.260;2022-11-18T11:42:10;15.30;26.80
32895;DHT22;19251;49.484;8.260;2022-11-18T11:47:03;15.40;26.90
32895;DHT22;19251;49.484;8.260;2022-11-18T12:03:41;15.70;25.40
32895;DHT22;19251;49.484;8.260;2022-11-18T12:09:14;15.70;25.10
32895;DHT22;19251;49.484;8.260;2022-11-18T12:14:43;15.80;25.30
32895;DHT22;19251;49.484;8.260;2022-11-18T12:19:48;16.00;24.70
32895;DHT22;19251;49.484;8.260;2022-11-18T12:24:50;16.20;23.70
32895;DHT22;19251;49.484;8.260;2022-11-18T12:29:55;16.20;22.90
32895;DHT22;19251;49.484;8.260;2022-11-18T12:50:51;16.10;22.70
32895;DHT22;19251;49.484;8.260;2022-11-18T12:55:53;16.20;23.30
32895;DHT22;19251;49.484;8.260;2022-11-18T13:01:09;16.30;22.60
32895;DHT22;19251;49.484;8.260;2022-11-18T13:11:28;16.20;22.20
32895;DHT22;19251;49.484;8.260;2022-11-18T13:16:47;16.00;21.70
32895;DHT22;19251;49.484;8.260;2022-11-18T13:22:16;15.90;22.00
32895;DHT22;19251;49.484;8.260;2022-11-18T13:27:48;16.00;21.70
32895;DHT22;19251;49.484;8.260;2022-11-18T13:32:53;16.00;22.20
32895;DHT22;19251;49.484;8.260;2022-11-18T13:38:01;16.30;22.30
32895;DHT22;19251;49.484;8.260;2022-11-18T13:43:03;16.90;21.80
32895;DHT22;19251;49.484;8.260;2022-11-18T13:48:07;17.00;21.10
32895;DHT22;19251;49.484;8.260;2022-11-18T13:53:39;17.00;19.20
32895;DHT22;19251;49.484;8.260;2022-11-18T14:04:22;14.40;18.10
32895;DHT22;19251;49.484;8.260;2022-11-18T14:09:27;16.80;19.80
32895;DHT22;19251;49.484;8.260;2022-11-18T14:14:33;16.80;20.50
32895;DHT22;19251;49.484;8.260;2022-11-18T14:19:35;16.90;19.60
32895;DHT22;19251;49.484;8.260;2022-11-18T14:24:38;16.70;20.00
32895;DHT22;19251;49.484;8.260;2022-11-18T14:29:48;16.60;18.30
32895;DHT22;19251;49.484;8.260;2022-11-18T14:35:00;16.40;18.80
32895;DHT22;19251;49.484;8.260;2022-11-18T14:40:04;16.40;19.40
32895;DHT22;19251;49.484;8.260;2022-11-18T14:45:06;16.10;19.00
32895;DHT22;19251;49.484;8.260;2022-11-18T14:50:13;15.90;19.20
32895;DHT22;19251;49.484;8.260;2022-11-18T14:55:15;15.70;19.20
32895;DHT22;19251;49.484;8.260;2022-11-18T15:00:17;15.40;19.70
32895;DHT22;19251;49.484;8.260;2022-11-18T15:05:20;15.30;19.80
32895;DHT22;19251;49.484;8.260;2022-11-18T15:10:22;15.20;20.80
32895;DHT22;19251;49.484;8.260;2022-11-18T15:15:24;15.10;20.80
32895;DHT22;19251;49.484;8.260;2022-11-18T15:20:26;15.00;20.40
32895;DHT22;19251;49.484;8.260;2022-11-18T15:25:29;15.00;20.80
32895;DHT22;19251;49.484;8.260;2022-11-18T15:30:31;14.90;20.80
32895;DHT22;19251;49.484;8.260;2022-11-18T15:35:33;14.90;21.70
32895;DHT22;19251;49.484;8.260;2022-11-18T15:40:35;14.80;21.80
32895;DHT22;19251;49.484;8.260;2022-11-18T15:50:40;14.60;21.40
32895;DHT22;19251;49.484;8.260;2022-11-18T15:55:42;14.60;21.80
32895;DHT22;19251;49.484;8.260;2022-11-18T16:00:44;14.60;21.70
32895;DHT22;19251;49.484;8.260;2022-11-18T16:05:46;14.60;23.30
32895;DHT22;19251;49.484;8.260;2022-11-18T16:10:54;14.50;22.30
32895;DHT22;19251;49.484;8.260;2022-11-18T16:16:22;14.40;22.00
32895;DHT22;19251;49.484;8.260;2022-11-18T16:21:27;14.30;22.30
32895;DHT22;19251;49.484;8.260;2022-11-18T16:26:31;14.30;23.10
32895;DHT22;19251;49.484;8.260;2022-11-18T16:31:33;14.20;23.20
32895;DHT22;19251;49.484;8.260;2022-11-18T16:36:43;14.10;22.50
32895;DHT22;19251;49.484;8.260;2022-11-18T16:41:46;14.00;22.70
32895;DHT22;19251;49.484;8.260;2022-11-18T16:46:53;14.00;23.40
32895;DHT22;19251;49.484;8.260;2022-11-18T16:51:56;13.80;23.40
32895;DHT22;19251;49.484;8.260;2022-11-18T16:56:58;13.80;23.40
32895;DHT22;19251;49.484;8.260;2022-11-18T17:02:00;13.70;23.70
32895;DHT22;19251;49.484;8.260;2022-11-18T17:07:04;13.60;23.80
32895;DHT22;19251;49.484;8.260;2022-11-18T17:12:06;13.60;24.40
32895;DHT22;19251;49.484;8.260;2022-11-18T17:17:08;13.60;24.00
32895;DHT22;19251;49.484;8.260;2022-11-18T17:22:10;13.50;24.10
32895;DHT22;19251;49.484;8.260;2022-11-18T17:27:12;13.40;24.00
32895;DHT22;19251;49.484;8.260;2022-11-18T17:32:15;13.30;24.70
32895;DHT22;19251;49.484;8.260;2022-11-18T17:37:17;13.30;25.60
32895;DHT22;19251;49.484;8.260;2022-11-18T17:42:19;13.20;25.20
32895;DHT22;19251;49.484;8.260;2022-11-18T17:47:24;13.20;25.00
32895;DHT22;19251;49.484;8.260;2022-11-18T17:52:27;13.10;25.40
32895;DHT22;19251;49.484;8.260;2022-11-18T17:57:29;13.10;25.90
32895;DHT22;19251;49.484;8.260;2022-11-18T18:02:31;13.10;25.10
32895;DHT22;19251;49.484;8.260;2022-11-18T18:12:35;13.20;25.40
32895;DHT22;19251;49.484;8.260;2022-11-18T18:17:56;13.20;25.50
32895;DHT22;19251;49.484;8.260;2022-11-18T18:22:58;13.20;25.40
32895;DHT22;19251;49.484;8.260;2022-11-18T18:28:00;13.20;25.50
32895;DHT22;19251;49.484;8.260;2022-11-18T18:33:03;13.20;25.60
32895;DHT22;19251;49.484;8.260;2022-11-18T18:38:05;13.20;26.20
32895;DHT22;19251;49.484;8.260;2022-11-18T18:43:07;13.20;26.00
32895;DHT22;19251;49.484;8.260;2022-11-18T18:48:09;13.20;25.90
32895;DHT22;19251;49.484;8.260;2022-11-18T19:03:16;13.10;25.90
32895;DHT22;19251;49.484;8.260;2022-11-18T19:08:18;13.00;26.70
32895;DHT22;19251;49.484;8.260;2022-11-18T19:13:20;13.10;26.70
32895;DHT22;19251;49.484;8.260;2022-11-18T19:18:22;13.00;26.20
32895;DHT22;19251;49.484;8.260;2022-11-18T19:28:27;13.00;26.50
32895;DHT22;19251;49.484;8.260;2022-11-18T19:33:29;13.00;26.60
32895;DHT22;19251;49.484;8.260;2022-11-18T19:38:31;13.00;26.60
32895;DHT22;19251;49.484;8.260;2022-11-18T19:43:35;13.00;26.40
32895;DHT22;19251;49.484;8.260;2022-11-18T19:48:37;13.00;26.40
32895;DHT22;19251;49.484;8.260;2022-11-18T19:53:40;13.00;26.40
32895;DHT22;19251;49.484;8.260;2022-11-18T20:03:49;13.00;26.50
32895;DHT22;19251;49.484;8.260;2022-11-18T20:08:51;13.00;26.50
32895;DHT22;19251;49.484;8.260;2022-11-18T20:13:55;13.00;26.50
32895;DHT22;19251;49.484;8.260;2022-11-18T20:19:00;13.00;26.70
32895;DHT22;19251;49.484;8.260;2022-11-18T20:24:14;13.00;26.50
32895;DHT22;19251;49.484;8.260;2022-11-18T20:39:23;13.00;26.90
32895;DHT22;19251;49.484;8.260;2022-11-18T20:44:25;13.10;26.90
32895;DHT22;19251;49.484;8.260;2022-11-18T20:49:27;13.10;27.10
32895;DHT22;19251;49.484;8.260;2022-11-18T20:54:29;13.00;27.00
32895;DHT22;19251;49.484;8.260;2022-11-18T20:59:31;13.10;27.00
32895;DHT22;19251;49.484;8.260;2022-11-18T21:04:33;13.10;26.90
32895;DHT22;19251;49.484;8.260;2022-11-18T21:09:35;13.10;26.80
32895;DHT22;19251;49.484;8.260;2022-11-18T21:14:37;13.10;26.80
32895;DHT22;19251;49.484;8.260;2022-11-18T21:19:39;12.70;27.00
32895;DHT22;19251;49.484;8.260;2022-11-18T21:24:48;13.10;26.70
32895;DHT22;19251;49.484;8.260;2022-11-18T21:29:50;13.10;26.70
32895;DHT22;19251;49.484;8.260;2022-11-18T21:34:52;13.20;27.30
32895;DHT22;19251;49.484;8.260;2022-11-18T21:39:55;13.10;26.60
32895;DHT22;19251;49.484;8.260;2022-11-18T21:49:59;13.10;26.60
32895;DHT22;19251;49.484;8.260;2022-11-18T21:55:01;13.10;26.60
32895;DHT22;19251;49.484;8.260;2022-11-18T22:00:04;13.10;26.70
32895;DHT22;19251;49.484;8.260;2022-11-18T22:05:12;13.00;26.70
32895;DHT22;19251;49.484;8.260;2022-11-18T22:10:16;13.10;26.80
32895;DHT22;19251;49.484;8.260;2022-11-18T22:15:19;13.00;26.70
32895;DHT22;19251;49.484;8.260;2022-11-18T22:20:21;13.00;27.20
32895;DHT22;19251;49.484;8.260;2022-11-18T22:30:26;13.00;26.80
32895;DHT22;19251;49.484;8.260;2022-11-18T22:35:29;13.00;26.80
32895;DHT22;19251;49.484;8.260;2022-11-18T22:45:34;13.00;26.80
32895;DHT22;19251;49.484;8.260;2022-11-18T22:50:36;13.00;26.70
32895;DHT22;19251;49.484;8.260;2022-11-18T22:55:38;12.90;26.70
32895;DHT22;19251;49.484;8.260;2022-11-18T23:05:45;12.90;26.70
32895;DHT22;19251;49.484;8.260;2022-11-18T23:10:47;12.90;26.80
32895;DHT22;19251;49.484;8.260;2022-11-18T23:15:49;12.90;27.00
32895;DHT22;19251;49.484;8.260;2022-11-18T23:20:57;12.90;27.00
32895;DHT22;19251;49.484;8.260;2022-11-18T23:26:11;12.80;27.00
32895;DHT22;19251;49.484;8.260;2022-11-18T23:31:17;12.80;26.90
32895;DHT22;19251;49.484;8.260;2022-11-18T23:36:19;12.80;26.90
32895;DHT22;19251;49.484;8.260;2022-11-18T23:41:22;12.80;26.80
32895;DHT22;19251;49.484;8.260;2022-11-18T23:46:24;12.80;26.80
32895;DHT22;19251;49.484;8.260;2022-11-18T23:51:28;12.80;26.90
32895;DHT22;19251;49.484;8.260;2022-11-18T23:56:30;12.80;26.80
